• Join FlightAware (Why Join?)
  • Login
  • US Flag 
Gobble Gobble! 
02:02PM EST


 

Airport Tracker/Info


-or-


 

Live Flight TrackerFlight Track Log ✈ N50KC ✈ 17-Jun-2013 ✈ KILM - KTEB

Flight Track Log - Related Links

Times and Time Zones

All times are in EDT time to prevent confusion due to time zone crossing. See the N50KC flight status page for this flight to view local times or setup timezone preferences in your user account.

Time Position Orientation Groundspeed Altitude Reporting Facility
EDT Latitude Longitude Course Direction KTS MPH feet Rate Location/Type
05:16PM 34.2567 -77.9714 359° North 151 174 4,500  Level Washington Center
05:17PM 34.3339 -77.9736 359° North 154 177 9,100 3,600 Climbing Washington Center
05:18PM 34.4136 -77.9458 16° North 225 259 11,600 2,340 Climbing Washington Center
05:19PM 34.5144 -77.9133 15° North 302 348 13,900 2,400 Climbing Washington Center
05:20PM 34.6214 -77.8811 14° North 351 404 16,600 2,640 Climbing Washington Center
05:21PM 34.7406 -77.8692 North 399 459 19,100 2,520 Climbing Washington Center
05:22PM 34.8597 -77.8650 North 421 484 21,700 2,220 Climbing Washington Center
05:23PM 34.9869 -77.8661 360° North 439 505 23,700 1,740 Climbing Washington Center
05:24PM 35.1122 -77.8619 North 439 505 25,300 1,560 Climbing Washington Center
05:25PM 35.2458 -77.8606 360° North 451 519 26,900 1,740 Climbing Washington Center
05:26PM 35.3833 -77.8594 360° North 475 547 28,800 1,920 Climbing Washington Center
05:27PM 35.5192 -77.8556 North 480 552 30,800 1,980 Climbing Washington Center
05:28PM 35.6531 -77.8414 North 480 552 32,800 1,980 Climbing Washington Center
05:29PM 35.7831 -77.8042 13° North 480 552 34,800 2,040 Climbing Washington Center
05:30PM 35.9092 -77.7489 20° North 475 547 37,000 2,040 Climbing Washington Center
05:31PM 36.0356 -77.6906 20° North 470 541 38,900 1,980 Climbing Washington Center
05:32PM 36.1722 -77.6272 21° North 475 547 41,000 1,080 Climbing Washington Center
05:33PM 36.2919 -77.5764 19° North 468 539 41,100 420 Climbing Washington Center
05:34PM 36.4117 -77.5200 21° North 461 531 41,900 840 Climbing Washington Center
05:35PM 36.5169 -77.4761 19° North 451 519 42,800 900 Climbing Washington Center
05:36PM 36.6408 -77.4169 21° North 451 519 43,800 960 Climbing Washington Center
05:37PM 36.7647 -77.3628 19° North 456 525 44,800 540 Climbing Washington Center
05:38PM 36.8867 -77.3058 20° North 456 525 45,000 60 Climbing Washington Center
05:39PM 37.0083 -77.2511 20° North 456 525 45,000  Level Washington Center
05:40PM 37.1322 -77.1942 20° North 461 531 45,000  Level Washington Center
05:41PM 37.2664 -77.1317 20° North 461 531 45,000  Level Washington Center
05:42PM 37.3883 -77.0739 21° North 469 540 45,000  Level Washington Center
05:43PM 37.5183 -77.0161 19° North 469 540 45,000 -120 Level Washington Center
05:44PM 37.6442 -76.9583 20° North 480 552 44,800 -1,320 Descending Washington Center
05:45PM 37.7656 -76.9025 20° North 468 539 42,400 -2,400 Descending Washington Center
05:46PM 37.8850 -76.8547 18° North 461 531 40,000 -2,280 Descending Washington Center
05:47PM 38.0036 -76.8753 352° North 442 509 37,900 -2,100 Descending Washington Center
05:48PM 38.1203 -76.8983 351° North 418 481 35,900 -1,980 Descending Washington Center
05:49PM 38.2408 -76.9214 351° North 428 493 34,000 -960 Descending Washington Center
05:50PM 38.3533 -76.9472 350° North 446 513 34,000  Level Washington Center
05:51PM 38.4808 -76.9153 11° North 446 513 34,000  Level Washington Center
05:52PM 38.5739 -76.7761 49° Northeast 440 506 34,000  Level Washington Center
05:53PM 38.5797 -76.5903 88° East 439 505 34,000  Level Washington Center
05:54PM 38.5017 -76.4406 124° Southeast 427 491 34,000  Level Washington Center
05:55PM 38.3750 -76.3914 163° South 388 447 34,000 -240 Level Washington Center
05:56PM 38.2722 -76.4619 208° Southwest 347 399 33,600 -1,020 Descending Washington Center
05:57PM 38.1881 -76.5667 224° Southwest 353 406 32,000 -540 Descending Washington Center
05:59PM 38.1147 -76.8242 250° West 375 432 32,000 -420 Level Washington Center
06:00PM 38.2139 -76.9078 326° Northwest 338 389 30,800 -1,800 Descending Washington Center
06:01PM 38.3478 -76.8836 North 343 395 28,400 -2,880 Descending Washington Center
06:02PM 38.4775 -76.8356 16° North 394 453 25,100 -2,280 Descending Washington Center
06:03PM 38.5989 -76.7869 17° North 434 499 24,000 -600 Descending Washington Center
06:04PM 38.7122 -76.7197 25° Northeast 434 499 24,000  Level Washington Center
06:05PM 38.8194 -76.6175 37° Northeast 458 527 24,000  Level Washington Center
06:06PM 38.9119 -76.5039 44° Northeast 467 537 24,000  Level Washington Center
06:07PM 39.0022 -76.4008 42° Northeast 447 514 24,000  Level Washington Center
06:08PM 39.0636 -76.2572 61° Northeast 441 507 24,000  Level Washington Center
06:09PM 39.1269 -76.0947 63° Northeast 456 525 24,000  Level Washington Center
06:10PM 39.1753 -75.9531 66° East 445 512 24,000 -180 Level Washington Center
06:11PM 39.2611 -75.8997 26° Northeast 335 386 23,700 -1,200 Descending Washington Center
06:12PM 39.3422 -75.9486 335° Northwest 272 313 21,700 -1,860 Descending Washington Center
06:13PM 39.4833 -75.9833 349° North 317 365 19,000 -1,140 Descending Philadelphia TRACON
06:14PM 39.5833 -76.0167 346° North 317 365 18,800 -1,200 Descending Philadelphia TRACON
06:15PM 39.6667 -75.9667 25° Northeast 342 394 16,600 -2,160 Descending Philadelphia TRACON
06:16PM 39.7000 -75.8667 67° East 353 406 14,700 -1,860 Descending Philadelphia TRACON
06:17PM 39.7500 -75.7667 57° Northeast 341 392 13,100 -840 Descending Philadelphia TRACON
06:18PM 39.7833 -75.6500 70° East 328 377 13,100  Level Philadelphia TRACON
06:20PM 39.8500 -75.5500 49° Northeast 329 379 13,100 -60 Level Philadelphia TRACON
06:20PM 39.9167 -75.5000 30° Northeast 322 371 13,000  Descending Philadelphia TRACON
06:21PM 39.9833 -75.4333 37° Northeast 312 359 13,100  Climbing Philadelphia TRACON
06:22PM 40.0500 -75.3667 37° Northeast 318 366 13,000  Descending Philadelphia TRACON
06:23PM 40.1333 -75.2833 37° Northeast 314 361 13,100 60 Climbing Philadelphia TRACON